createdAt,value
2019-04-25T00:01:38.503Z,100870
2019-04-25T00:03:38.479Z,100870
2019-04-25T00:05:38.800Z,100870
2019-04-25T00:07:38.731Z,100870
2019-04-25T00:09:37.956Z,100880
2019-04-25T00:11:39.303Z,100880
2019-04-25T00:13:38.014Z,100880
2019-04-25T00:15:38.226Z,100880
2019-04-25T00:17:38.653Z,100880
2019-04-25T00:19:37.101Z,100880
2019-04-25T00:21:36.834Z,100880
2019-04-25T00:23:37.433Z,100880
2019-04-25T00:25:36.531Z,100880
2019-04-25T00:29:36.422Z,100880
2019-04-25T00:31:36.048Z,100880
2019-04-25T00:33:37.624Z,100880
2019-04-25T00:35:36.352Z,100880
2019-04-25T00:37:35.792Z,100880
2019-04-25T00:39:35.810Z,100880
2019-04-25T00:41:35.456Z,100880
2019-04-25T00:43:35.188Z,100880
2019-04-25T00:45:35.036Z,100870
2019-04-25T00:47:34.899Z,100880
2019-04-25T00:49:34.608Z,100870
2019-04-25T00:51:34.456Z,100880
2019-04-25T00:53:34.768Z,100880
2019-04-25T00:55:34.291Z,100880
2019-04-25T00:59:33.960Z,100870
2019-04-25T01:01:33.865Z,100870
2019-04-25T01:03:33.591Z,100870
2019-04-25T01:05:33.214Z,100870
2019-04-25T01:07:34.427Z,100870
2019-04-25T01:09:33.062Z,100870
2019-04-25T01:11:33.130Z,100870
2019-04-25T01:13:32.649Z,100870
2019-04-25T01:15:32.503Z,100880
2019-04-25T01:17:32.699Z,100870
2019-04-25T01:19:31.970Z,100870
2019-04-25T01:21:31.965Z,100870
2019-04-25T01:23:33.543Z,100870
2019-04-25T01:25:40.303Z,100880
2019-04-25T01:27:31.299Z,100870
2019-04-25T01:29:33.425Z,100870
2019-04-25T01:31:33.624Z,100870
2019-04-25T01:33:30.861Z,100870
2019-04-25T01:35:31.284Z,100870
2019-04-25T01:37:30.564Z,100870
2019-04-25T01:39:30.507Z,100870
2019-04-25T01:41:30.300Z,100870
2019-04-25T01:43:29.889Z,100870
2019-04-25T01:45:29.903Z,100870
2019-04-25T01:47:29.800Z,100860
2019-04-25T01:49:29.376Z,100860
2019-04-25T01:51:30.229Z,100860
2019-04-25T01:55:29.148Z,100870
2019-04-25T01:57:28.713Z,100860
2019-04-25T01:59:28.874Z,100860
2019-04-25T02:01:28.643Z,100860
2019-04-25T02:03:30.767Z,100860
2019-04-25T02:05:27.958Z,100860
2019-04-25T02:07:28.441Z,100860
2019-04-25T02:09:27.705Z,100860
2019-04-25T02:11:27.991Z,100860
2019-04-25T02:13:27.222Z,100860
2019-04-25T02:17:27.015Z,100860
2019-04-25T02:19:27.598Z,100860
2019-04-25T02:21:26.495Z,100870
2019-04-25T02:23:26.354Z,100860
2019-04-25T02:25:26.095Z,100860
2019-04-25T02:27:25.933Z,100860
2019-04-25T02:29:27.954Z,100860
2019-04-25T02:31:25.714Z,100860
2019-04-25T02:33:25.365Z,100860
2019-04-25T02:35:26.496Z,100860
2019-04-25T02:37:25.806Z,100860
2019-04-25T02:39:24.915Z,100870
2019-04-25T02:41:25.118Z,100870
2019-04-25T02:45:24.542Z,100870
2019-04-25T02:47:25.061Z,100870
2019-04-25T02:49:34.885Z,100870
2019-04-25T02:51:24.344Z,100870
2019-04-25T02:53:23.979Z,100870
2019-04-25T02:55:34.395Z,100870
2019-04-25T02:57:25.139Z,100870
2019-04-25T03:01:25.979Z,100870
2019-04-25T03:03:24.459Z,100870
2019-04-25T03:05:22.401Z,100870
2019-04-25T03:07:24.576Z,100870
2019-04-25T03:09:21.965Z,100870
2019-04-25T03:11:24.276Z,100870
2019-04-25T03:15:24.143Z,100870
2019-04-25T03:17:21.240Z,100860
2019-04-25T03:19:20.937Z,100860
2019-04-25T03:21:20.774Z,100870
2019-04-25T03:23:20.847Z,100860
2019-04-25T03:25:20.495Z,100870
2019-04-25T03:27:20.422Z,100870
2019-04-25T03:29:21.725Z,100870
2019-04-25T03:31:23.169Z,100870
2019-04-25T03:33:20.073Z,100870
2019-04-25T03:35:19.696Z,100870
2019-04-25T03:37:19.450Z,100870
2019-04-25T03:39:19.186Z,100870
2019-04-25T03:41:19.043Z,100870
2019-04-25T03:43:18.918Z,100870
2019-04-25T03:45:18.841Z,100870
2019-04-25T03:47:18.651Z,100870
2019-04-25T03:49:18.304Z,100870
2019-04-25T03:51:18.317Z,100870
2019-04-25T03:53:18.599Z,100880
2019-04-25T03:55:17.788Z,100880
2019-04-25T03:57:17.719Z,100870
2019-04-25T03:59:18.425Z,100870
2019-04-25T04:01:17.295Z,100880
2019-04-25T04:03:17.120Z,100870
2019-04-25T04:05:16.971Z,100880
2019-04-25T04:07:16.797Z,100880
2019-04-25T04:09:16.598Z,100880
2019-04-25T04:11:16.396Z,100880
2019-04-25T04:13:16.581Z,100880
2019-04-25T04:15:16.098Z,100880
2019-04-25T04:17:16.114Z,100870
2019-04-25T04:19:15.854Z,100870
2019-04-25T04:21:16.280Z,100870
2019-04-25T04:23:16.439Z,100870
2019-04-25T04:25:15.965Z,100870
2019-04-25T04:27:16.770Z,100870
2019-04-25T04:29:16.525Z,100860
2019-04-25T04:31:15.438Z,100860
2019-04-25T04:33:27.254Z,100860
2019-04-25T04:35:15.988Z,100860
2019-04-25T04:37:15.813Z,100860
2019-04-25T04:39:16.481Z,100860
2019-04-25T04:41:15.137Z,100860
2019-04-25T04:43:15.305Z,100860
2019-04-25T04:45:14.347Z,100860
2019-04-25T04:47:15.029Z,100860
2019-04-25T04:51:14.892Z,100860
2019-04-25T04:53:14.936Z,100860
2019-04-25T04:55:15.777Z,100860
2019-04-25T04:57:25.760Z,100860
2019-04-25T04:59:14.645Z,100860
2019-04-25T05:01:14.188Z,100860
2019-04-25T05:03:14.223Z,100860
2019-04-25T05:05:14.438Z,100860
2019-04-25T05:07:12.078Z,100860
2019-04-25T05:09:13.687Z,100850
2019-04-25T05:11:14.615Z,100850
2019-04-25T05:13:12.154Z,100850
2019-04-25T05:15:12.452Z,100860
2019-04-25T05:17:12.208Z,100850
2019-04-25T05:19:14.003Z,100850
2019-04-25T05:21:11.849Z,100850
2019-04-25T05:23:10.923Z,100850
2019-04-25T05:25:13.452Z,100850
2019-04-25T05:27:10.796Z,100850
2019-04-25T05:29:10.671Z,100850
2019-04-25T05:31:10.613Z,100850
2019-04-25T05:33:10.440Z,100850
2019-04-25T05:35:10.461Z,100850
2019-04-25T05:37:10.144Z,100850
2019-04-25T05:39:10.347Z,100850
2019-04-25T05:43:10.376Z,100850
2019-04-25T05:45:10.200Z,100850
2019-04-25T05:47:09.536Z,100850
2019-04-25T05:49:09.479Z,100840
2019-04-25T05:51:09.310Z,100840
2019-04-25T05:53:09.088Z,100850
2019-04-25T05:55:09.880Z,100840
2019-04-25T05:57:09.161Z,100850
2019-04-25T05:59:08.875Z,100840
2019-04-25T06:01:08.806Z,100840
2019-04-25T06:03:08.602Z,100840
2019-04-25T06:05:08.937Z,100840
2019-04-25T06:07:08.335Z,100840
2019-04-25T06:09:08.646Z,100830
2019-04-25T06:11:09.404Z,100840
2019-04-25T06:13:08.363Z,100840
2019-04-25T06:15:08.354Z,100830
2019-04-25T06:17:07.989Z,100830
2019-04-25T06:19:14.111Z,100830
2019-04-25T06:21:07.694Z,100830
2019-04-25T06:23:08.619Z,100830
2019-04-25T06:25:12.408Z,100830
2019-04-25T06:27:08.037Z,100830
2019-04-25T06:31:10.233Z,100820
2019-04-25T06:33:07.121Z,100820
2019-04-25T06:35:08.324Z,100820
2019-04-25T06:37:08.038Z,100820
2019-04-25T06:39:08.560Z,100820
2019-04-25T06:41:06.952Z,100820
2019-04-25T06:43:06.809Z,100820
2019-04-25T06:45:09.526Z,100820
2019-04-25T06:47:06.644Z,100820
2019-04-25T06:49:06.489Z,100820
2019-04-25T06:51:06.369Z,100820
2019-04-25T06:53:06.351Z,100820
2019-04-25T06:55:06.752Z,100820
2019-04-25T06:57:06.197Z,100810
2019-04-25T06:59:06.230Z,100810
2019-04-25T07:01:08.155Z,100810
2019-04-25T07:03:06.052Z,100810
2019-04-25T07:05:07.221Z,100810
2019-04-25T07:07:12.402Z,100810
2019-04-25T07:09:07.854Z,100810
2019-04-25T07:11:05.877Z,100810
2019-04-25T07:13:06.133Z,100810
2019-04-25T07:15:06.787Z,100810
2019-04-25T07:17:05.897Z,100810
2019-04-25T07:19:06.315Z,100810
2019-04-25T07:21:05.616Z,100820
2019-04-25T07:23:05.745Z,100810
2019-04-25T07:25:08.886Z,100820
2019-04-25T07:27:05.496Z,100810
2019-04-25T07:29:05.495Z,100810
2019-04-25T07:31:05.502Z,100820
2019-04-25T07:33:05.403Z,100810
2019-04-25T07:35:06.874Z,100810
2019-04-25T07:37:05.881Z,100810
2019-04-25T07:39:10.482Z,100810
2019-04-25T07:41:05.473Z,100810
2019-04-25T07:43:05.261Z,100820
2019-04-25T07:45:07.749Z,100810
2019-04-25T07:47:05.875Z,100810
2019-04-25T07:51:05.831Z,100810
2019-04-25T07:55:06.036Z,100800
2019-04-25T07:57:05.649Z,100800
2019-04-25T07:59:06.223Z,100790
2019-04-25T08:01:06.129Z,100800
2019-04-25T08:03:04.907Z,100800
2019-04-25T08:05:05.296Z,100800
2019-04-25T08:07:04.896Z,100790
2019-04-25T08:09:10.367Z,100800
2019-04-25T08:11:06.778Z,100790
2019-04-25T08:13:04.944Z,100790
2019-04-25T08:17:05.385Z,100790
2019-04-25T08:19:04.872Z,100790
2019-04-25T08:21:04.596Z,100790
2019-04-25T08:23:05.770Z,100790
2019-04-25T08:25:05.601Z,100790
2019-04-25T08:27:05.277Z,100780
2019-04-25T08:29:05.301Z,100780
2019-04-25T08:31:04.309Z,100780
2019-04-25T08:33:04.843Z,100770
2019-04-25T08:35:04.897Z,100780
2019-04-25T08:37:04.227Z,100780
2019-04-25T08:39:06.887Z,100770
2019-04-25T08:41:05.213Z,100770
2019-04-25T08:43:06.714Z,100770
2019-04-25T08:45:05.928Z,100770
2019-04-25T08:47:04.544Z,100770
2019-04-25T08:49:06.287Z,100760
2019-04-25T08:51:04.194Z,100760
2019-04-25T08:53:04.240Z,100760
2019-04-25T08:55:04.511Z,100760
2019-04-25T08:57:04.826Z,100750
2019-04-25T08:59:07.906Z,100760
2019-04-25T09:01:04.193Z,100760
2019-04-25T09:03:05.886Z,100750
2019-04-25T09:05:05.095Z,100750
2019-04-25T09:07:05.453Z,100740
2019-04-25T09:09:07.242Z,100750
2019-04-25T09:11:03.970Z,100730
2019-04-25T09:13:04.869Z,100750
2019-04-25T09:17:03.964Z,100740
2019-04-25T09:19:04.749Z,100740
2019-04-25T09:21:04.007Z,100740
2019-04-25T09:23:05.009Z,100730
2019-04-25T09:25:04.782Z,100730
2019-04-25T09:27:03.928Z,100720
2019-04-25T09:29:16.695Z,100730
2019-04-25T09:31:04.039Z,100730
2019-04-25T09:33:04.715Z,100720
2019-04-25T09:35:04.452Z,100730
2019-04-25T09:37:03.846Z,100720
2019-04-25T09:39:06.615Z,100720
2019-04-25T09:41:04.561Z,100720
2019-04-25T09:43:03.999Z,100710
2019-04-25T09:45:05.108Z,100710
2019-04-25T09:47:03.797Z,100720
2019-04-25T09:49:04.272Z,100710
2019-04-25T09:51:05.647Z,100710
2019-04-25T09:53:04.559Z,100710
2019-04-25T09:55:04.122Z,100710
2019-04-25T09:57:03.886Z,100710
2019-04-25T09:59:04.147Z,100700
2019-04-25T10:01:05.824Z,100700
2019-04-25T10:03:04.649Z,100690
2019-04-25T10:05:05.750Z,100690
2019-04-25T10:07:03.665Z,100690
2019-04-25T10:09:13.544Z,100700
2019-04-25T10:11:04.144Z,100690
2019-04-25T10:13:06.265Z,100690
2019-04-25T10:15:27.609Z,100690
2019-04-25T10:17:03.990Z,100690
2019-04-25T10:21:05.471Z,100690
2019-04-25T10:23:05.027Z,100680
2019-04-25T10:25:04.270Z,100680
2019-04-25T10:27:03.899Z,100690
2019-04-25T10:29:04.459Z,100680
2019-04-25T10:31:03.792Z,100680
2019-04-25T10:33:04.118Z,100680
2019-04-25T10:35:04.229Z,100680
2019-04-25T10:37:03.719Z,100680
2019-04-25T10:41:04.363Z,100680
2019-04-25T10:45:06.211Z,100670
2019-04-25T10:47:03.814Z,100670
2019-04-25T10:49:04.397Z,100660
2019-04-25T10:51:04.215Z,100660
2019-04-25T10:53:04.075Z,100660
2019-04-25T10:55:04.372Z,100660
2019-04-25T10:59:04.301Z,100660
2019-04-25T11:01:04.299Z,100660
2019-04-25T11:03:04.350Z,100660
2019-04-25T11:05:06.383Z,100660
2019-04-25T11:07:03.958Z,100660
2019-04-25T11:11:04.687Z,100650
2019-04-25T11:13:04.110Z,100650
2019-04-25T11:15:06.569Z,100650
2019-04-25T11:17:04.629Z,100650
2019-04-25T11:19:04.514Z,100650
2019-04-25T11:21:06.050Z,100650
2019-04-25T11:23:04.785Z,100640
2019-04-25T11:25:04.576Z,100640
2019-04-25T11:27:04.358Z,100640
2019-04-25T11:29:04.154Z,100640
2019-04-25T11:31:05.254Z,100640
2019-04-25T11:33:05.077Z,100640
2019-04-25T11:35:05.330Z,100640
2019-04-25T11:37:05.915Z,100630
2019-04-25T11:39:13.560Z,100620
2019-04-25T11:41:04.199Z,100620
2019-04-25T11:43:04.455Z,100640
2019-04-25T11:45:06.030Z,100630
2019-04-25T11:47:07.124Z,100630
2019-04-25T11:49:04.537Z,100630
2019-04-25T11:51:04.472Z,100630
2019-04-25T11:53:04.806Z,100620
2019-04-25T11:55:09.214Z,100620
2019-04-25T11:57:04.527Z,100620
2019-04-25T11:59:04.582Z,100610
2019-04-25T12:01:05.149Z,100610
2019-04-25T12:03:04.414Z,100600
2019-04-25T12:05:05.806Z,100610
2019-04-25T12:07:06.823Z,100610
2019-04-25T12:09:06.994Z,100600
2019-04-25T12:11:05.969Z,100600
2019-04-25T12:13:04.451Z,100600
2019-04-25T12:15:07.594Z,100600
2019-04-25T12:17:05.000Z,100590
2019-04-25T12:19:05.526Z,100590
2019-04-25T12:21:04.889Z,100580
2019-04-25T12:25:05.603Z,100580
2019-04-25T12:27:05.968Z,100590
2019-04-25T12:29:04.981Z,100590
2019-04-25T12:31:05.043Z,100580
2019-04-25T12:33:17.860Z,100580
2019-04-25T12:35:06.156Z,100580
2019-04-25T12:37:06.711Z,100590
2019-04-25T12:39:13.800Z,100590
2019-04-25T12:41:06.122Z,100580
2019-04-25T12:43:06.205Z,100580
2019-04-25T12:45:07.493Z,100570
2019-04-25T12:47:07.150Z,100570
2019-04-25T12:49:07.011Z,100570
2019-04-25T12:51:07.228Z,100570
2019-04-25T12:53:08.861Z,100570
2019-04-25T12:55:07.873Z,100570
2019-04-25T12:59:08.345Z,100540
2019-04-25T13:01:08.797Z,100560
2019-04-25T13:05:10.703Z,100550
2019-04-25T13:07:09.252Z,100560
2019-04-25T13:09:13.161Z,100560
2019-04-25T13:11:10.578Z,100550
2019-04-25T13:13:10.010Z,100560
2019-04-25T13:15:11.125Z,100550
2019-04-25T13:17:10.644Z,100550
2019-04-25T13:19:20.366Z,100540
2019-04-25T13:21:13.398Z,100540
2019-04-25T13:23:11.565Z,100540
2019-04-25T13:25:12.044Z,100540
2019-04-25T13:27:14.225Z,100540
2019-04-25T13:29:12.632Z,100550
2019-04-25T13:31:14.794Z,100550
2019-04-25T13:33:13.065Z,100550
2019-04-25T13:35:13.601Z,100550
2019-04-25T13:37:14.164Z,100540
2019-04-25T13:39:16.248Z,100540
2019-04-25T13:41:14.105Z,100530
2019-04-25T13:43:14.119Z,100530
2019-04-25T13:45:14.601Z,100530
2019-04-25T13:47:15.583Z,100530
2019-04-25T13:49:15.107Z,100530
2019-04-25T13:51:15.592Z,100540
2019-04-25T13:53:15.847Z,100520
2019-04-25T13:55:16.267Z,100530
2019-04-25T13:57:16.172Z,100530
2019-04-25T13:59:16.955Z,100530
2019-04-25T14:01:17.526Z,100520
2019-04-25T14:03:17.133Z,100520
2019-04-25T14:05:17.448Z,100520
2019-04-25T14:07:17.488Z,100520
2019-04-25T14:13:19.495Z,100510
2019-04-25T14:17:18.864Z,100510
2019-04-25T14:19:19.998Z,100510
2019-04-25T14:21:19.139Z,100510
2019-04-25T14:23:19.367Z,100500
2019-04-25T14:25:20.376Z,100500
2019-04-25T14:27:19.988Z,100490
2019-04-25T14:29:20.489Z,100500
2019-04-25T14:31:35.352Z,100500
2019-04-25T14:33:23.063Z,100500
2019-04-25T14:35:21.611Z,100490
2019-04-25T14:37:23.820Z,100490
2019-04-25T14:39:21.506Z,100490
2019-04-25T14:41:22.782Z,100490
2019-04-25T14:43:22.499Z,100480
2019-04-25T14:45:22.652Z,100480
2019-04-25T14:47:23.268Z,100480
2019-04-25T14:49:22.656Z,100480
2019-04-25T14:57:24.316Z,100470
2019-04-25T15:01:24.084Z,100460
2019-04-25T15:03:24.287Z,100470
2019-04-25T15:05:24.813Z,100460
2019-04-25T15:07:24.471Z,100460
2019-04-25T15:09:25.255Z,100460
2019-04-25T15:11:24.784Z,100450
2019-04-25T15:13:25.804Z,100450
2019-04-25T15:15:25.031Z,100450
2019-04-25T15:19:25.467Z,100440
2019-04-25T15:21:26.238Z,100440
2019-04-25T15:23:27.265Z,100450
2019-04-25T15:25:27.287Z,100450
2019-04-25T15:27:26.301Z,100450
2019-04-25T15:29:26.538Z,100450
2019-04-25T15:31:25.691Z,100450
2019-04-25T15:33:26.406Z,100440
2019-04-25T15:37:26.489Z,100440
2019-04-25T15:39:26.179Z,100430
2019-04-25T15:41:26.225Z,100430
2019-04-25T15:43:26.311Z,100440
2019-04-25T15:45:26.386Z,100430
2019-04-25T15:47:26.429Z,100440
2019-04-25T15:49:25.796Z,100440
2019-04-25T15:51:26.884Z,100430
2019-04-25T15:53:25.944Z,100430
2019-04-25T15:55:26.214Z,100430
2019-04-25T15:59:27.415Z,100430
2019-04-25T16:01:26.522Z,100430
2019-04-25T16:03:26.015Z,100430
2019-04-25T16:05:26.614Z,100430
2019-04-25T16:07:27.145Z,100430
2019-04-25T16:09:26.782Z,100420
2019-04-25T16:11:28.035Z,100430
2019-04-25T16:15:27.590Z,100420
2019-04-25T16:17:27.185Z,100420
2019-04-25T16:19:26.079Z,100420
2019-04-25T16:21:27.661Z,100420
2019-04-25T16:23:26.082Z,100420
2019-04-25T16:25:26.217Z,100420
2019-04-25T16:27:28.853Z,100430
2019-04-25T16:33:26.470Z,100420
2019-04-25T16:37:26.010Z,100420
2019-04-25T16:41:26.142Z,100420
2019-04-25T16:43:25.834Z,100420
2019-04-25T16:45:25.834Z,100420
2019-04-25T16:47:25.874Z,100420
2019-04-25T16:49:25.866Z,100420
2019-04-25T16:51:25.774Z,100420
2019-04-25T16:53:26.021Z,100420
2019-04-25T16:55:25.728Z,100430
2019-04-25T16:57:25.804Z,100420
2019-04-25T16:59:26.260Z,100430
2019-04-25T17:01:25.746Z,100430
2019-04-25T17:03:25.619Z,100430
2019-04-25T17:05:25.745Z,100430
2019-04-25T17:07:25.727Z,100430
2019-04-25T17:09:25.773Z,100430
2019-04-25T17:11:26.067Z,100430
2019-04-25T17:13:25.532Z,100430
2019-04-25T17:15:25.501Z,100430
2019-04-25T17:17:25.941Z,100430
2019-04-25T17:19:25.840Z,100430
2019-04-25T17:21:25.479Z,100430
2019-04-25T17:23:26.547Z,100430
2019-04-25T17:27:25.708Z,100430
2019-04-25T17:29:25.535Z,100430
2019-04-25T17:31:25.401Z,100430
2019-04-25T17:33:25.660Z,100430
2019-04-25T17:35:25.362Z,100430
2019-04-25T17:37:26.155Z,100430
2019-04-25T17:39:25.294Z,100430
2019-04-25T17:41:25.218Z,100440
2019-04-25T17:43:25.196Z,100430
2019-04-25T17:45:25.148Z,100430
2019-04-25T17:47:25.170Z,100440
2019-04-25T17:49:25.003Z,100440
2019-04-25T17:51:25.078Z,100430
2019-04-25T17:53:25.466Z,100430
2019-04-25T17:55:24.771Z,100440
2019-04-25T17:57:25.143Z,100440
2019-04-25T17:59:25.275Z,100440
2019-04-25T18:01:24.899Z,100440
2019-04-25T18:03:24.820Z,100430
2019-04-25T18:05:24.948Z,100440
2019-04-25T18:07:24.672Z,100430
2019-04-25T18:09:24.705Z,100440
2019-04-25T18:11:25.346Z,100430
2019-04-25T18:13:24.580Z,100440
2019-04-25T18:15:24.400Z,100440
2019-04-25T18:17:24.459Z,100430
2019-04-25T18:19:25.880Z,100440
2019-04-25T18:21:24.442Z,100440
2019-04-25T18:23:24.299Z,100440
2019-04-25T18:25:24.220Z,100440
2019-04-25T18:27:24.240Z,100440
2019-04-25T18:29:24.697Z,100440
2019-04-25T18:31:24.143Z,100440
2019-04-25T18:33:24.118Z,100430
2019-04-25T18:37:24.055Z,100430
2019-04-25T18:39:23.829Z,100430
2019-04-25T18:41:25.700Z,100430
2019-04-25T18:45:24.861Z,100430
2019-04-25T18:47:23.810Z,100430
2019-04-25T18:49:23.760Z,100430
2019-04-25T18:51:23.833Z,100430
2019-04-25T18:53:24.092Z,100430
2019-04-25T18:55:23.681Z,100430
2019-04-25T18:57:23.557Z,100430
2019-04-25T18:59:24.208Z,100430
2019-04-25T19:01:23.658Z,100430
2019-04-25T19:03:25.956Z,100430
2019-04-25T19:05:23.599Z,100430
2019-04-25T19:07:23.352Z,100430
2019-04-25T19:09:23.384Z,100430
2019-04-25T19:11:23.420Z,100430
2019-04-25T19:13:23.266Z,100430
2019-04-25T19:15:23.211Z,100440
2019-04-25T19:19:23.239Z,100430
2019-04-25T19:25:22.986Z,100430
2019-04-25T19:27:23.819Z,100440
2019-04-25T19:29:22.938Z,100440
2019-04-25T19:31:22.734Z,100440
2019-04-25T19:33:34.710Z,100440
2019-04-25T19:35:24.369Z,100440
2019-04-25T19:37:22.703Z,100440
2019-04-25T19:39:22.581Z,100440
2019-04-25T19:41:22.476Z,100450
2019-04-25T19:43:22.144Z,100450
2019-04-25T19:45:22.179Z,100450
2019-04-25T19:47:22.124Z,100450
2019-04-25T19:49:22.015Z,100450
2019-04-25T19:53:21.955Z,100450
2019-04-25T19:55:21.860Z,100450
2019-04-25T19:57:21.754Z,100450
2019-04-25T19:59:22.299Z,100460
2019-04-25T20:01:21.808Z,100450
2019-04-25T20:03:21.492Z,100460
2019-04-25T20:05:21.558Z,100460
2019-04-25T20:07:21.663Z,100460
2019-04-25T20:09:21.500Z,100460
2019-04-25T20:11:21.360Z,100460
2019-04-25T20:13:21.209Z,100460
2019-04-25T20:15:21.174Z,100460
2019-04-25T20:17:21.092Z,100460
2019-04-25T20:19:20.938Z,100460
2019-04-25T20:21:20.880Z,100460
2019-04-25T20:23:21.059Z,100460
2019-04-25T20:25:20.856Z,100460
2019-04-25T20:27:20.705Z,100460
2019-04-25T20:31:20.940Z,100460
2019-04-25T20:33:20.576Z,100460
2019-04-25T20:35:20.443Z,100460
2019-04-25T20:37:20.832Z,100470
2019-04-25T20:39:20.274Z,100470
2019-04-25T20:41:21.106Z,100470
2019-04-25T20:43:19.936Z,100470
2019-04-25T20:45:20.084Z,100470
2019-04-25T20:47:20.229Z,100460
2019-04-25T20:49:20.096Z,100470
2019-04-25T20:51:19.784Z,100470
2019-04-25T20:53:20.724Z,100460
2019-04-25T20:55:20.427Z,100470
2019-04-25T20:57:19.515Z,100470
2019-04-25T20:59:19.925Z,100470
2019-04-25T21:01:19.779Z,100470
2019-04-25T21:07:19.045Z,100480
2019-04-25T21:09:19.501Z,100480
2019-04-25T21:11:18.795Z,100480
2019-04-25T21:13:18.818Z,100480
2019-04-25T21:15:18.671Z,100480
2019-04-25T21:17:18.553Z,100480
2019-04-25T21:19:20.101Z,100480
2019-04-25T21:21:18.330Z,100480
2019-04-25T21:23:18.336Z,100480
2019-04-25T21:25:19.921Z,100480
2019-04-25T21:27:18.048Z,100490
2019-04-25T21:29:17.959Z,100480
2019-04-25T21:31:18.477Z,100480
2019-04-25T21:33:18.044Z,100480
2019-04-25T21:35:17.831Z,100480
2019-04-25T21:37:18.241Z,100480
2019-04-25T21:39:17.533Z,100480
2019-04-25T21:41:18.924Z,100480
2019-04-25T21:43:17.708Z,100480
2019-04-25T21:45:17.463Z,100480
2019-04-25T21:47:17.580Z,100480
2019-04-25T21:49:18.094Z,100480
2019-04-25T21:51:17.111Z,100480
2019-04-25T21:53:17.076Z,100480
2019-04-25T21:55:16.832Z,100480
2019-04-25T21:57:16.752Z,100480
2019-04-25T21:59:16.714Z,100480
2019-04-25T22:01:20.606Z,100480
2019-04-25T22:03:17.387Z,100490
2019-04-25T22:05:16.612Z,100500
2019-04-25T22:07:16.886Z,100500
2019-04-25T22:09:16.281Z,100510
2019-04-25T22:11:16.187Z,100520
2019-04-25T22:15:15.952Z,100540
2019-04-25T22:17:15.880Z,100540
2019-04-25T22:19:15.961Z,100540
2019-04-25T22:21:15.720Z,100530
2019-04-25T22:23:16.633Z,100530
2019-04-25T22:25:15.499Z,100520
2019-04-25T22:27:15.386Z,100530
2019-04-25T22:31:15.335Z,100490
2019-04-25T22:33:15.127Z,100480
2019-04-25T22:35:15.598Z,100480
2019-04-25T22:37:15.034Z,100500
2019-04-25T22:39:15.038Z,100510
2019-04-25T22:41:15.335Z,100520
2019-04-25T22:43:14.914Z,100530
2019-04-25T22:45:14.676Z,100530
2019-04-25T22:47:17.399Z,100500
2019-04-25T22:49:15.680Z,100490
2019-04-25T22:51:14.471Z,100490
2019-04-25T22:53:21.825Z,100490
2019-04-25T22:55:14.365Z,100490
2019-04-25T22:57:14.213Z,100490
2019-04-25T22:59:14.294Z,100490
2019-04-25T23:01:14.262Z,100490
2019-04-25T23:03:14.008Z,100490
2019-04-25T23:05:16.067Z,100490
2019-04-25T23:07:13.585Z,100480
2019-04-25T23:09:14.628Z,100480
2019-04-25T23:11:14.541Z,100480
2019-04-25T23:13:13.391Z,100480
2019-04-25T23:15:13.693Z,100490
2019-04-25T23:17:13.822Z,100480
2019-04-25T23:19:13.422Z,100480
2019-04-25T23:21:13.056Z,100480
2019-04-25T23:23:13.914Z,100490
2019-04-25T23:25:14.131Z,100490
2019-04-25T23:27:14.521Z,100490
2019-04-25T23:29:12.909Z,100480
2019-04-25T23:31:12.642Z,100490
2019-04-25T23:33:12.602Z,100490
2019-04-25T23:37:12.162Z,100500
2019-04-25T23:39:11.941Z,100500
2019-04-25T23:41:13.541Z,100500
2019-04-25T23:43:13.698Z,100500
2019-04-25T23:45:12.421Z,100500
2019-04-25T23:47:12.130Z,100510
2019-04-25T23:49:11.251Z,100510
2019-04-25T23:51:11.320Z,100500
2019-04-25T23:53:11.282Z,100500
2019-04-25T23:57:11.726Z,100500
2019-04-25T23:59:11.504Z,100500
